Michigan, ND (58259)

4:41 AM CDT on October 24, 2014 (GMT -0500)
Grand Forks Air Force Base | Change Station
CLOSE
Current Station
Airport
Location: Grand Forks AFB,
Elevation: 912 ft
Nearby Weather Stations

Elev 912 ft 47.96 °N, 97.40 °W | Updated 43 minutes ago

Clear
Clear
53 °F
Feels Like 53 °F
N
7
Wind Variable Wind from West

Today
High -- | Low -- °F
--% Chance of Precip.
Yesterday
High -- | Low -- °F
Precip. -- in
8:05 AM 6:27 PM
New Moon, 0% visible
Pressure 29.77 in
Visibility 10.0 miles
Clouds Clear
Dew Point 37 °F
Humidity 56%
Rainfall 0.00 in
Snow Depth Not available.
UV 0 out of 12
Pollen .90 out of 12
Air Quality Not available.
Flu Activity Local Activity
METAR KRDR 240858Z AUTO 26006KT 10SM CLR 12/03 A2975 RMK AO2 SLP079 T01150030 50000

More Conditions Fewer Conditions

Pressure 29.77 in
Visibility 10.0 miles
Clouds Clear
Dew Point 37 °F
Humidity 56%
Rainfall 0.00 in
Snow Depth Not available.
UV 0 out of 12
Pollen .90 out of 12
Air Quality Not available.
Flu Activity Local Activity
METAR KRDR 240858Z AUTO 26006KT 10SM CLR 12/03 A2975 RMK AO2 SLP079 T01150030 50000

More Conditions Fewer Conditions

10-Day Weather Forecast

Almanac

Astronomy

Oct. 24, 2014 Rise Set
Actual Time 8:05 AM CDT 6:27 PM CDT
Civil Twilight 7:33 AM CDT 6:59 PM CDT
Nautical Twilight 6:57 AM CDT 7:35 PM CDT
Astronomical Twilight 6:21 AM CDT 8:11 PM CDT
Moon 8:48 AM CDT 7:04 PM CDT
Length of Visible Light 11h 25m
Length of Day
10h 21m
Tomorrow will be 3m 16s shorter.
New Moon, 0% of the Moon is Illuminated
Today
New Moon
Oct 30
First Quarter
Nov 6
Full
Nov 14
Last Quarter
Nov 22
New

Today's Extremes

State Highs State Lows

Community

WunderPhotos

Upload Photos

1,764,513 photos uploaded!

WunderBlogs® & News

Nearby

Snow Depth

Station Depth Elevation
No new snow has been reported.

Earthquake Activity

City Distance Mag. Time & Date
No recent earthquake activity has been reported nearby.
Minimum magnitude displayed is 2.5.

Coastal Water Temperatures

Place Temperature
No Stations Reporting

Nearby Weather Stations